sensor_id;sensor_type;location;lat;lon;timestamp;P1;durP1;ratioP1;P2;durP2;ratioP2
13404;SDS011;6773;51.192;7.024;2023-03-20T00:00:36;15.50;;;9.73;;
13404;SDS011;6773;51.192;7.024;2023-03-20T00:03:05;13.97;;;8.50;;
13404;SDS011;6773;51.192;7.024;2023-03-20T00:05:31;14.17;;;9.57;;
13404;SDS011;6773;51.192;7.024;2023-03-20T00:07:57;13.77;;;9.17;;
13404;SDS011;6773;51.192;7.024;2023-03-20T00:10:44;15.37;;;9.80;;
13404;SDS011;6773;51.192;7.024;2023-03-20T00:13:12;15.10;;;8.93;;
13404;SDS011;6773;51.192;7.024;2023-03-20T00:15:42;16.00;;;10.07;;
13404;SDS011;6773;51.192;7.024;2023-03-20T00:18:18;17.47;;;8.57;;
13404;SDS011;6773;51.192;7.024;2023-03-20T00:20:47;14.87;;;10.37;;
13404;SDS011;6773;51.192;7.024;2023-03-20T00:23:14;17.80;;;10.43;;
13404;SDS011;6773;51.192;7.024;2023-03-20T00:25:42;19.40;;;10.07;;
13404;SDS011;6773;51.192;7.024;2023-03-20T00:28:28;16.30;;;10.17;;
13404;SDS011;6773;51.192;7.024;2023-03-20T00:31:25;16.23;;;10.53;;
13404;SDS011;6773;51.192;7.024;2023-03-20T00:33:56;19.57;;;11.37;;
13404;SDS011;6773;51.192;7.024;2023-03-20T00:36:23;19.33;;;11.37;;
13404;SDS011;6773;51.192;7.024;2023-03-20T00:38:49;18.67;;;11.27;;
13404;SDS011;6773;51.192;7.024;2023-03-20T00:41:20;19.33;;;10.83;;
13404;SDS011;6773;51.192;7.024;2023-03-20T00:43:52;17.17;;;10.57;;
13404;SDS011;6773;51.192;7.024;2023-03-20T00:46:20;16.97;;;10.50;;
13404;SDS011;6773;51.192;7.024;2023-03-20T00:48:46;18.90;;;11.27;;
13404;SDS011;6773;51.192;7.024;2023-03-20T00:51:13;18.40;;;11.40;;
13404;SDS011;6773;51.192;7.024;2023-03-20T00:53:38;17.13;;;10.00;;
13404;SDS011;6773;51.192;7.024;2023-03-20T00:56:04;17.20;;;9.93;;
13404;SDS011;6773;51.192;7.024;2023-03-20T00:58:31;17.10;;;9.40;;
13404;SDS011;6773;51.192;7.024;2023-03-20T01:00:57;15.50;;;9.27;;
13404;SDS011;6773;51.192;7.024;2023-03-20T01:03:23;14.57;;;8.33;;
13404;SDS011;6773;51.192;7.024;2023-03-20T01:05:50;15.77;;;9.50;;
13404;SDS011;6773;51.192;7.024;2023-03-20T01:08:21;15.00;;;9.57;;
13404;SDS011;6773;51.192;7.024;2023-03-20T01:10:49;14.07;;;8.40;;
13404;SDS011;6773;51.192;7.024;2023-03-20T01:13:21;12.93;;;8.17;;
13404;SDS011;6773;51.192;7.024;2023-03-20T01:15:52;12.77;;;9.00;;
13404;SDS011;6773;51.192;7.024;2023-03-20T01:18:21;12.23;;;7.70;;
13404;SDS011;6773;51.192;7.024;2023-03-20T01:20:47;13.43;;;8.27;;
13404;SDS011;6773;51.192;7.024;2023-03-20T01:23:13;14.43;;;7.90;;
13404;SDS011;6773;51.192;7.024;2023-03-20T01:25:40;12.23;;;8.00;;
13404;SDS011;6773;51.192;7.024;2023-03-20T01:28:13;14.27;;;8.53;;
13404;SDS011;6773;51.192;7.024;2023-03-20T01:30:47;13.80;;;7.93;;
13404;SDS011;6773;51.192;7.024;2023-03-20T01:33:17;14.93;;;8.53;;
13404;SDS011;6773;51.192;7.024;2023-03-20T01:35:45;14.00;;;8.70;;
13404;SDS011;6773;51.192;7.024;2023-03-20T01:38:12;13.87;;;7.87;;
13404;SDS011;6773;51.192;7.024;2023-03-20T01:43:14;14.03;;;8.67;;
13404;SDS011;6773;51.192;7.024;2023-03-20T01:48:55;13.60;;;7.73;;
13404;SDS011;6773;51.192;7.024;2023-03-20T01:51:29;12.27;;;8.47;;
13404;SDS011;6773;51.192;7.024;2023-03-20T01:54:03;13.57;;;9.13;;
13404;SDS011;6773;51.192;7.024;2023-03-20T01:56:34;13.03;;;8.73;;
13404;SDS011;6773;51.192;7.024;2023-03-20T01:59:05;14.77;;;9.33;;
13404;SDS011;6773;51.192;7.024;2023-03-20T02:01:39;13.10;;;8.23;;
13404;SDS011;6773;51.192;7.024;2023-03-20T02:04:06;15.13;;;9.90;;
13404;SDS011;6773;51.192;7.024;2023-03-20T02:06:33;14.60;;;8.33;;
13404;SDS011;6773;51.192;7.024;2023-03-20T02:09:00;11.40;;;8.33;;
13404;SDS011;6773;51.192;7.024;2023-03-20T02:11:25;13.50;;;8.03;;
13404;SDS011;6773;51.192;7.024;2023-03-20T02:13:52;14.63;;;9.50;;
13404;SDS011;6773;51.192;7.024;2023-03-20T02:16:21;13.73;;;8.37;;
13404;SDS011;6773;51.192;7.024;2023-03-20T02:18:47;13.80;;;8.77;;
13404;SDS011;6773;51.192;7.024;2023-03-20T02:29:47;15.43;;;8.93;;
13404;SDS011;6773;51.192;7.024;2023-03-20T02:32:56;14.27;;;9.13;;
13404;SDS011;6773;51.192;7.024;2023-03-20T02:35:48;16.80;;;9.50;;
13404;SDS011;6773;51.192;7.024;2023-03-20T02:44:32;13.93;;;9.83;;
13404;SDS011;6773;51.192;7.024;2023-03-20T02:47:40;15.37;;;9.97;;
13404;SDS011;6773;51.192;7.024;2023-03-20T02:50:36;16.63;;;10.33;;
13404;SDS011;6773;51.192;7.024;2023-03-20T02:58:35;17.70;;;10.33;;
13404;SDS011;6773;51.192;7.024;2023-03-20T03:01:26;15.93;;;9.27;;
13404;SDS011;6773;51.192;7.024;2023-03-20T03:04:03;17.77;;;10.60;;
13404;SDS011;6773;51.192;7.024;2023-03-20T03:06:38;16.27;;;9.90;;
13404;SDS011;6773;51.192;7.024;2023-03-20T03:11:33;21.43;;;11.20;;
13404;SDS011;6773;51.192;7.024;2023-03-20T03:14:02;20.23;;;10.60;;
13404;SDS011;6773;51.192;7.024;2023-03-20T03:16:31;17.13;;;10.03;;
13404;SDS011;6773;51.192;7.024;2023-03-20T03:19:18;19.07;;;11.73;;
13404;SDS011;6773;51.192;7.024;2023-03-20T03:21:48;17.90;;;10.63;;
13404;SDS011;6773;51.192;7.024;2023-03-20T03:24:23;21.43;;;12.20;;
13404;SDS011;6773;51.192;7.024;2023-03-20T03:26:51;17.30;;;10.53;;
13404;SDS011;6773;51.192;7.024;2023-03-20T03:29:17;20.20;;;10.97;;
13404;SDS011;6773;51.192;7.024;2023-03-20T03:31:45;21.40;;;10.63;;
13404;SDS011;6773;51.192;7.024;2023-03-20T03:34:11;21.20;;;11.67;;
13404;SDS011;6773;51.192;7.024;2023-03-20T03:39:52;21.17;;;11.00;;
13404;SDS011;6773;51.192;7.024;2023-03-20T03:42:30;16.90;;;10.17;;
13404;SDS011;6773;51.192;7.024;2023-03-20T03:49:57;17.33;;;10.10;;
13404;SDS011;6773;51.192;7.024;2023-03-20T03:52:26;20.27;;;10.23;;
13404;SDS011;6773;51.192;7.024;2023-03-20T03:54:57;20.93;;;11.90;;
13404;SDS011;6773;51.192;7.024;2023-03-20T03:57:30;20.60;;;10.77;;
13404;SDS011;6773;51.192;7.024;2023-03-20T04:00:01;18.70;;;10.80;;
13404;SDS011;6773;51.192;7.024;2023-03-20T04:02:30;18.70;;;11.23;;
13404;SDS011;6773;51.192;7.024;2023-03-20T04:04:58;19.80;;;11.10;;
13404;SDS011;6773;51.192;7.024;2023-03-20T04:07:27;21.13;;;11.17;;
13404;SDS011;6773;51.192;7.024;2023-03-20T04:09:53;21.23;;;12.10;;
13404;SDS011;6773;51.192;7.024;2023-03-20T04:12:38;17.40;;;11.17;;
13404;SDS011;6773;51.192;7.024;2023-03-20T04:15:05;21.07;;;12.70;;
13404;SDS011;6773;51.192;7.024;2023-03-20T04:17:32;19.47;;;11.77;;
13404;SDS011;6773;51.192;7.024;2023-03-20T04:19:57;19.47;;;11.67;;
13404;SDS011;6773;51.192;7.024;2023-03-20T04:22:23;19.90;;;12.07;;
13404;SDS011;6773;51.192;7.024;2023-03-20T04:24:49;22.30;;;11.90;;
13404;SDS011;6773;51.192;7.024;2023-03-20T04:27:15;19.03;;;11.07;;
13404;SDS011;6773;51.192;7.024;2023-03-20T04:29:42;20.33;;;11.33;;
13404;SDS011;6773;51.192;7.024;2023-03-20T04:32:08;24.00;;;12.53;;
13404;SDS011;6773;51.192;7.024;2023-03-20T04:34:34;21.83;;;12.30;;
13404;SDS011;6773;51.192;7.024;2023-03-20T04:37:00;18.73;;;11.50;;
13404;SDS011;6773;51.192;7.024;2023-03-20T04:39:25;20.90;;;12.20;;
13404;SDS011;6773;51.192;7.024;2023-03-20T04:41:51;20.23;;;11.60;;
13404;SDS011;6773;51.192;7.024;2023-03-20T04:44:17;20.30;;;11.30;;
13404;SDS011;6773;51.192;7.024;2023-03-20T04:46:43;20.20;;;11.43;;
13404;SDS011;6773;51.192;7.024;2023-03-20T04:49:09;23.13;;;11.53;;
13404;SDS011;6773;51.192;7.024;2023-03-20T04:51:34;21.77;;;11.80;;
13404;SDS011;6773;51.192;7.024;2023-03-20T04:54:00;24.60;;;11.73;;
13404;SDS011;6773;51.192;7.024;2023-03-20T04:56:26;21.03;;;11.90;;
13404;SDS011;6773;51.192;7.024;2023-03-20T04:58:51;23.17;;;13.13;;
13404;SDS011;6773;51.192;7.024;2023-03-20T05:01:17;21.63;;;13.00;;
13404;SDS011;6773;51.192;7.024;2023-03-20T05:03:43;20.87;;;12.27;;
13404;SDS011;6773;51.192;7.024;2023-03-20T05:06:08;25.50;;;12.90;;
13404;SDS011;6773;51.192;7.024;2023-03-20T05:08:34;22.90;;;12.57;;
13404;SDS011;6773;51.192;7.024;2023-03-20T05:11:00;20.63;;;11.30;;
13404;SDS011;6773;51.192;7.024;2023-03-20T05:13:26;21.33;;;12.80;;
13404;SDS011;6773;51.192;7.024;2023-03-20T05:15:52;18.57;;;11.67;;
13404;SDS011;6773;51.192;7.024;2023-03-20T05:18:17;20.00;;;11.50;;
13404;SDS011;6773;51.192;7.024;2023-03-20T05:20:43;19.87;;;10.30;;
13404;SDS011;6773;51.192;7.024;2023-03-20T05:23:09;19.47;;;11.77;;
13404;SDS011;6773;51.192;7.024;2023-03-20T05:25:34;20.93;;;12.17;;
13404;SDS011;6773;51.192;7.024;2023-03-20T05:28:00;20.40;;;11.50;;
13404;SDS011;6773;51.192;7.024;2023-03-20T05:30:26;18.87;;;11.30;;
13404;SDS011;6773;51.192;7.024;2023-03-20T05:32:51;19.37;;;11.27;;
13404;SDS011;6773;51.192;7.024;2023-03-20T05:35:17;16.70;;;9.90;;
13404;SDS011;6773;51.192;7.024;2023-03-20T05:37:43;21.53;;;11.07;;
13404;SDS011;6773;51.192;7.024;2023-03-20T05:40:11;19.80;;;10.63;;
13404;SDS011;6773;51.192;7.024;2023-03-20T05:42:38;16.33;;;10.40;;
13404;SDS011;6773;51.192;7.024;2023-03-20T05:45:04;18.30;;;10.77;;
13404;SDS011;6773;51.192;7.024;2023-03-20T05:47:31;18.00;;;11.63;;
13404;SDS011;6773;51.192;7.024;2023-03-20T05:49:57;20.10;;;11.43;;
13404;SDS011;6773;51.192;7.024;2023-03-20T05:52:23;16.47;;;11.00;;
13404;SDS011;6773;51.192;7.024;2023-03-20T05:54:49;21.37;;;10.73;;
13404;SDS011;6773;51.192;7.024;2023-03-20T05:57:15;18.53;;;10.97;;
13404;SDS011;6773;51.192;7.024;2023-03-20T05:59:41;21.80;;;11.97;;
13404;SDS011;6773;51.192;7.024;2023-03-20T06:02:07;21.63;;;11.43;;
13404;SDS011;6773;51.192;7.024;2023-03-20T06:04:32;19.10;;;11.13;;
13404;SDS011;6773;51.192;7.024;2023-03-20T06:07:01;20.83;;;11.73;;
13404;SDS011;6773;51.192;7.024;2023-03-20T06:09:27;19.17;;;11.67;;
13404;SDS011;6773;51.192;7.024;2023-03-20T06:11:53;22.30;;;11.70;;
13404;SDS011;6773;51.192;7.024;2023-03-20T06:14:19;16.77;;;11.10;;
13404;SDS011;6773;51.192;7.024;2023-03-20T06:16:44;23.57;;;12.37;;
13404;SDS011;6773;51.192;7.024;2023-03-20T06:19:10;23.03;;;12.50;;
13404;SDS011;6773;51.192;7.024;2023-03-20T06:21:36;20.10;;;11.97;;
13404;SDS011;6773;51.192;7.024;2023-03-20T06:24:02;22.33;;;12.87;;
13404;SDS011;6773;51.192;7.024;2023-03-20T06:26:28;23.67;;;12.77;;
13404;SDS011;6773;51.192;7.024;2023-03-20T06:28:53;23.40;;;14.20;;
13404;SDS011;6773;51.192;7.024;2023-03-20T06:31:19;23.93;;;12.90;;
13404;SDS011;6773;51.192;7.024;2023-03-20T06:33:44;22.57;;;12.23;;
13404;SDS011;6773;51.192;7.024;2023-03-20T06:36:10;22.80;;;12.63;;
13404;SDS011;6773;51.192;7.024;2023-03-20T06:38:36;23.10;;;12.83;;
13404;SDS011;6773;51.192;7.024;2023-03-20T06:41:01;25.63;;;13.60;;
13404;SDS011;6773;51.192;7.024;2023-03-20T06:43:27;24.77;;;13.70;;
13404;SDS011;6773;51.192;7.024;2023-03-20T06:45:53;24.63;;;13.30;;
13404;SDS011;6773;51.192;7.024;2023-03-20T06:48:19;22.90;;;13.73;;
13404;SDS011;6773;51.192;7.024;2023-03-20T06:50:48;23.30;;;12.20;;
13404;SDS011;6773;51.192;7.024;2023-03-20T06:53:15;23.20;;;13.33;;
13404;SDS011;6773;51.192;7.024;2023-03-20T06:55:41;23.70;;;12.00;;
13404;SDS011;6773;51.192;7.024;2023-03-20T06:58:07;24.30;;;11.77;;
13404;SDS011;6773;51.192;7.024;2023-03-20T07:00:34;23.57;;;12.63;;
13404;SDS011;6773;51.192;7.024;2023-03-20T07:03:06;22.03;;;11.90;;
13404;SDS011;6773;51.192;7.024;2023-03-20T07:05:32;21.33;;;12.13;;
13404;SDS011;6773;51.192;7.024;2023-03-20T07:07:58;22.47;;;11.67;;
13404;SDS011;6773;51.192;7.024;2023-03-20T07:10:24;21.10;;;12.27;;
13404;SDS011;6773;51.192;7.024;2023-03-20T07:12:50;20.27;;;10.23;;
13404;SDS011;6773;51.192;7.024;2023-03-20T07:15:17;20.50;;;11.40;;
13404;SDS011;6773;51.192;7.024;2023-03-20T07:17:43;20.17;;;11.23;;
13404;SDS011;6773;51.192;7.024;2023-03-20T07:20:09;18.93;;;10.27;;
13404;SDS011;6773;51.192;7.024;2023-03-20T07:22:35;19.70;;;10.43;;
13404;SDS011;6773;51.192;7.024;2023-03-20T07:25:02;18.43;;;10.77;;
13404;SDS011;6773;51.192;7.024;2023-03-20T07:27:28;19.03;;;10.57;;
13404;SDS011;6773;51.192;7.024;2023-03-20T07:29:53;16.37;;;9.93;;
13404;SDS011;6773;51.192;7.024;2023-03-20T07:32:19;18.67;;;10.33;;
13404;SDS011;6773;51.192;7.024;2023-03-20T07:34:45;20.73;;;10.40;;
13404;SDS011;6773;51.192;7.024;2023-03-20T07:37:12;15.30;;;9.43;;
13404;SDS011;6773;51.192;7.024;2023-03-20T07:39:37;15.20;;;9.43;;
13404;SDS011;6773;51.192;7.024;2023-03-20T07:42:03;15.93;;;9.63;;
13404;SDS011;6773;51.192;7.024;2023-03-20T07:44:29;14.70;;;8.63;;
13404;SDS011;6773;51.192;7.024;2023-03-20T07:46:55;14.50;;;9.43;;
13404;SDS011;6773;51.192;7.024;2023-03-20T07:49:20;12.60;;;7.97;;
13404;SDS011;6773;51.192;7.024;2023-03-20T07:51:47;14.87;;;8.37;;
13404;SDS011;6773;51.192;7.024;2023-03-20T07:54:14;12.57;;;7.63;;
13404;SDS011;6773;51.192;7.024;2023-03-20T07:56:40;12.57;;;7.93;;
13404;SDS011;6773;51.192;7.024;2023-03-20T07:59:06;13.57;;;8.10;;
13404;SDS011;6773;51.192;7.024;2023-03-20T08:01:32;14.70;;;8.00;;
13404;SDS011;6773;51.192;7.024;2023-03-20T08:03:57;13.57;;;8.07;;
13404;SDS011;6773;51.192;7.024;2023-03-20T08:06:23;13.17;;;7.70;;
13404;SDS011;6773;51.192;7.024;2023-03-20T08:08:49;10.07;;;6.77;;
13404;SDS011;6773;51.192;7.024;2023-03-20T08:11:16;14.17;;;7.73;;
13404;SDS011;6773;51.192;7.024;2023-03-20T08:13:42;11.47;;;7.30;;
13404;SDS011;6773;51.192;7.024;2023-03-20T08:16:08;12.37;;;7.03;;
13404;SDS011;6773;51.192;7.024;2023-03-20T08:18:34;8.83;;;6.33;;
13404;SDS011;6773;51.192;7.024;2023-03-20T08:21:00;15.93;;;7.73;;
13404;SDS011;6773;51.192;7.024;2023-03-20T08:23:26;10.20;;;6.17;;
13404;SDS011;6773;51.192;7.024;2023-03-20T08:25:51;9.23;;;6.57;;
13404;SDS011;6773;51.192;7.024;2023-03-20T08:28:21;10.40;;;6.60;;
13404;SDS011;6773;51.192;7.024;2023-03-20T08:30:47;11.87;;;6.93;;
13404;SDS011;6773;51.192;7.024;2023-03-20T08:33:13;12.63;;;7.10;;
13404;SDS011;6773;51.192;7.024;2023-03-20T08:35:40;12.93;;;7.40;;
13404;SDS011;6773;51.192;7.024;2023-03-20T08:38:08;12.70;;;7.20;;
13404;SDS011;6773;51.192;7.024;2023-03-20T08:40:39;12.57;;;7.73;;
13404;SDS011;6773;51.192;7.024;2023-03-20T08:43:07;9.83;;;6.90;;
13404;SDS011;6773;51.192;7.024;2023-03-20T08:45:33;11.13;;;6.10;;
13404;SDS011;6773;51.192;7.024;2023-03-20T08:47:59;12.57;;;7.43;;
13404;SDS011;6773;51.192;7.024;2023-03-20T08:50:24;11.50;;;7.30;;
13404;SDS011;6773;51.192;7.024;2023-03-20T08:52:51;16.30;;;6.73;;
13404;SDS011;6773;51.192;7.024;2023-03-20T08:55:16;16.80;;;7.40;;
13404;SDS011;6773;51.192;7.024;2023-03-20T08:57:42;10.83;;;7.33;;
13404;SDS011;6773;51.192;7.024;2023-03-20T09:00:09;11.60;;;7.03;;
13404;SDS011;6773;51.192;7.024;2023-03-20T09:02:37;12.03;;;7.40;;
13404;SDS011;6773;51.192;7.024;2023-03-20T09:05:03;13.70;;;7.50;;
13404;SDS011;6773;51.192;7.024;2023-03-20T09:07:30;10.30;;;6.37;;
13404;SDS011;6773;51.192;7.024;2023-03-20T09:09:55;12.83;;;7.50;;
13404;SDS011;6773;51.192;7.024;2023-03-20T09:12:21;13.17;;;7.20;;
13404;SDS011;6773;51.192;7.024;2023-03-20T09:14:47;10.87;;;6.30;;
13404;SDS011;6773;51.192;7.024;2023-03-20T09:17:12;10.73;;;6.93;;
13404;SDS011;6773;51.192;7.024;2023-03-20T09:19:38;10.37;;;6.50;;
13404;SDS011;6773;51.192;7.024;2023-03-20T09:22:07;9.30;;;6.87;;
13404;SDS011;6773;51.192;7.024;2023-03-20T09:24:33;8.60;;;5.97;;
13404;SDS011;6773;51.192;7.024;2023-03-20T09:26:58;7.93;;;5.53;;
13404;SDS011;6773;51.192;7.024;2023-03-20T09:29:25;9.37;;;5.33;;
13404;SDS011;6773;51.192;7.024;2023-03-20T09:31:51;9.53;;;6.37;;
13404;SDS011;6773;51.192;7.024;2023-03-20T09:34:18;8.33;;;5.53;;
13404;SDS011;6773;51.192;7.024;2023-03-20T09:36:43;9.27;;;5.13;;
13404;SDS011;6773;51.192;7.024;2023-03-20T09:39:09;8.03;;;5.83;;
13404;SDS011;6773;51.192;7.024;2023-03-20T09:41:35;11.07;;;5.50;;
13404;SDS011;6773;51.192;7.024;2023-03-20T09:46:33;8.97;;;5.30;;
13404;SDS011;6773;51.192;7.024;2023-03-20T09:51:49;10.40;;;5.30;;
13404;SDS011;6773;51.192;7.024;2023-03-20T09:56:53;6.50;;;4.87;;
13404;SDS011;6773;51.192;7.024;2023-03-20T09:59:20;10.53;;;5.10;;
13404;SDS011;6773;51.192;7.024;2023-03-20T10:04:20;9.20;;;4.80;;
13404;SDS011;6773;51.192;7.024;2023-03-20T10:06:50;6.60;;;4.60;;
13404;SDS011;6773;51.192;7.024;2023-03-20T10:09:16;7.20;;;4.40;;
13404;SDS011;6773;51.192;7.024;2023-03-20T10:11:55;7.57;;;4.60;;
13404;SDS011;6773;51.192;7.024;2023-03-20T10:20:47;7.17;;;4.40;;
13404;SDS011;6773;51.192;7.024;2023-03-20T10:24:03;6.57;;;3.73;;
13404;SDS011;6773;51.192;7.024;2023-03-20T10:26:11;8.50;;;4.53;;
13404;SDS011;6773;51.192;7.024;2023-03-20T10:42:54;6.13;;;3.83;;
13404;SDS011;6773;51.192;7.024;2023-03-20T10:45:34;8.50;;;3.53;;
13404;SDS011;6773;51.192;7.024;2023-03-20T10:48:22;5.37;;;3.10;;
13404;SDS011;6773;51.192;7.024;2023-03-20T10:50:55;6.90;;;3.03;;
13404;SDS011;6773;51.192;7.024;2023-03-20T10:56:07;6.00;;;2.37;;
13404;SDS011;6773;51.192;7.024;2023-03-20T10:58:38;3.23;;;2.30;;
13404;SDS011;6773;51.192;7.024;2023-03-20T11:01:07;5.57;;;2.73;;
13404;SDS011;6773;51.192;7.024;2023-03-20T11:03:33;6.50;;;3.53;;
13404;SDS011;6773;51.192;7.024;2023-03-20T11:06:16;6.17;;;3.50;;
13404;SDS011;6773;51.192;7.024;2023-03-20T11:08:48;7.90;;;4.23;;
13404;SDS011;6773;51.192;7.024;2023-03-20T11:11:22;5.10;;;3.17;;
13404;SDS011;6773;51.192;7.024;2023-03-20T11:13:50;6.13;;;3.30;;
13404;SDS011;6773;51.192;7.024;2023-03-20T11:16:23;6.43;;;3.47;;
13404;SDS011;6773;51.192;7.024;2023-03-20T11:18:55;4.53;;;3.13;;
13404;SDS011;6773;51.192;7.024;2023-03-20T11:21:22;7.03;;;3.63;;
13404;SDS011;6773;51.192;7.024;2023-03-20T11:23:50;7.57;;;4.00;;
13404;SDS011;6773;51.192;7.024;2023-03-20T11:26:19;8.40;;;3.80;;
13404;SDS011;6773;51.192;7.024;2023-03-20T11:28:56;6.97;;;4.13;;
13404;SDS011;6773;51.192;7.024;2023-03-20T11:31:24;6.27;;;3.73;;
13404;SDS011;6773;51.192;7.024;2023-03-20T11:36:53;7.37;;;4.43;;
13404;SDS011;6773;51.192;7.024;2023-03-20T11:39:28;4.70;;;3.17;;
13404;SDS011;6773;51.192;7.024;2023-03-20T11:41:59;5.13;;;3.30;;
13404;SDS011;6773;51.192;7.024;2023-03-20T11:44:29;6.27;;;3.13;;
13404;SDS011;6773;51.192;7.024;2023-03-20T11:47:04;6.73;;;3.17;;
13404;SDS011;6773;51.192;7.024;2023-03-20T11:49:44;7.87;;;4.50;;
13404;SDS011;6773;51.192;7.024;2023-03-20T11:52:22;7.53;;;4.50;;
13404;SDS011;6773;51.192;7.024;2023-03-20T11:54:53;6.00;;;3.80;;
13404;SDS011;6773;51.192;7.024;2023-03-20T11:57:32;7.97;;;4.37;;
13404;SDS011;6773;51.192;7.024;2023-03-20T12:02:58;5.17;;;4.70;;
13404;SDS011;6773;51.192;7.024;2023-03-20T12:05:42;7.13;;;4.63;;
13404;SDS011;6773;51.192;7.024;2023-03-20T12:08:13;6.37;;;3.87;;
13404;SDS011;6773;51.192;7.024;2023-03-20T12:10:43;8.20;;;3.77;;
13404;SDS011;6773;51.192;7.024;2023-03-20T12:15:49;8.20;;;4.03;;
13404;SDS011;6773;51.192;7.024;2023-03-20T12:18:23;9.07;;;4.47;;
13404;SDS011;6773;51.192;7.024;2023-03-20T12:21:25;4.60;;;3.47;;
13404;SDS011;6773;51.192;7.024;2023-03-20T12:32:26;6.10;;;4.07;;
13404;SDS011;6773;51.192;7.024;2023-03-20T12:35:04;7.77;;;4.10;;
13404;SDS011;6773;51.192;7.024;2023-03-20T12:37:34;6.57;;;3.30;;
13404;SDS011;6773;51.192;7.024;2023-03-20T12:39:59;7.33;;;3.97;;
13404;SDS011;6773;51.192;7.024;2023-03-20T12:45:15;7.47;;;3.70;;
13404;SDS011;6773;51.192;7.024;2023-03-20T12:48:08;16.30;;;5.57;;
13404;SDS011;6773;51.192;7.024;2023-03-20T12:52:00;7.90;;;3.80;;
13404;SDS011;6773;51.192;7.024;2023-03-20T13:05:02;6.50;;;3.80;;
13404;SDS011;6773;51.192;7.024;2023-03-20T13:10:11;8.77;;;3.97;;
13404;SDS011;6773;51.192;7.024;2023-03-20T13:12:57;6.33;;;3.30;;
13404;SDS011;6773;51.192;7.024;2023-03-20T13:21:38;5.53;;;3.93;;
13404;SDS011;6773;51.192;7.024;2023-03-20T13:27:07;7.93;;;3.30;;
13404;SDS011;6773;51.192;7.024;2023-03-20T13:29:57;9.87;;;3.90;;
13404;SDS011;6773;51.192;7.024;2023-03-20T13:32:40;4.13;;;3.00;;
13404;SDS011;6773;51.192;7.024;2023-03-20T13:35:29;5.33;;;3.23;;
13404;SDS011;6773;51.192;7.024;2023-03-20T13:38:19;5.67;;;2.80;;
13404;SDS011;6773;51.192;7.024;2023-03-20T13:40:51;9.23;;;4.60;;
13404;SDS011;6773;51.192;7.024;2023-03-20T13:45:54;4.37;;;2.80;;
13404;SDS011;6773;51.192;7.024;2023-03-20T13:48:30;7.30;;;2.73;;
13404;SDS011;6773;51.192;7.024;2023-03-20T13:53:37;7.03;;;3.23;;
13404;SDS011;6773;51.192;7.024;2023-03-20T13:59:03;5.70;;;2.80;;
13404;SDS011;6773;51.192;7.024;2023-03-20T14:01:47;3.77;;;2.83;;
13404;SDS011;6773;51.192;7.024;2023-03-20T14:04:27;6.13;;;3.27;;
13404;SDS011;6773;51.192;7.024;2023-03-20T14:06:55;6.07;;;3.60;;
13404;SDS011;6773;51.192;7.024;2023-03-20T14:09:26;7.67;;;3.67;;
13404;SDS011;6773;51.192;7.024;2023-03-20T14:12:09;9.57;;;3.47;;
13404;SDS011;6773;51.192;7.024;2023-03-20T14:14:51;5.97;;;3.30;;
13404;SDS011;6773;51.192;7.024;2023-03-20T14:17:20;5.47;;;3.13;;
13404;SDS011;6773;51.192;7.024;2023-03-20T14:19:51;7.13;;;4.00;;
13404;SDS011;6773;51.192;7.024;2023-03-20T14:22:22;7.00;;;3.43;;
13404;SDS011;6773;51.192;7.024;2023-03-20T14:24:55;9.03;;;3.57;;
13404;SDS011;6773;51.192;7.024;2023-03-20T14:27:25;5.07;;;3.17;;
13404;SDS011;6773;51.192;7.024;2023-03-20T14:29:52;8.93;;;3.50;;
13404;SDS011;6773;51.192;7.024;2023-03-20T14:37:25;8.77;;;3.63;;
13404;SDS011;6773;51.192;7.024;2023-03-20T14:40:04;7.13;;;3.90;;
13404;SDS011;6773;51.192;7.024;2023-03-20T14:42:49;6.47;;;3.67;;
13404;SDS011;6773;51.192;7.024;2023-03-20T14:51:20;8.03;;;3.83;;
13404;SDS011;6773;51.192;7.024;2023-03-20T14:53:56;7.40;;;4.37;;
13404;SDS011;6773;51.192;7.024;2023-03-20T14:56:42;5.37;;;3.43;;
13404;SDS011;6773;51.192;7.024;2023-03-20T14:59:09;8.93;;;4.33;;
13404;SDS011;6773;51.192;7.024;2023-03-20T15:04:09;5.90;;;4.00;;
13404;SDS011;6773;51.192;7.024;2023-03-20T15:06:43;6.13;;;3.47;;
13404;SDS011;6773;51.192;7.024;2023-03-20T15:09:12;6.87;;;3.90;;
13404;SDS011;6773;51.192;7.024;2023-03-20T15:11:39;13.03;;;4.30;;
13404;SDS011;6773;51.192;7.024;2023-03-20T15:14:06;6.00;;;3.43;;
13404;SDS011;6773;51.192;7.024;2023-03-20T15:16:35;10.87;;;4.27;;
13404;SDS011;6773;51.192;7.024;2023-03-20T15:19:05;9.60;;;4.53;;
13404;SDS011;6773;51.192;7.024;2023-03-20T15:21:42;7.03;;;4.23;;
13404;SDS011;6773;51.192;7.024;2023-03-20T15:24:15;5.73;;;3.43;;
13404;SDS011;6773;51.192;7.024;2023-03-20T15:26:59;6.23;;;4.20;;
13404;SDS011;6773;51.192;7.024;2023-03-20T15:29:26;9.43;;;3.50;;
13404;SDS011;6773;51.192;7.024;2023-03-20T15:31:54;8.23;;;4.00;;
13404;SDS011;6773;51.192;7.024;2023-03-20T15:34:24;10.70;;;3.93;;
13404;SDS011;6773;51.192;7.024;2023-03-20T15:36:54;7.50;;;3.60;;
13404;SDS011;6773;51.192;7.024;2023-03-20T15:39:23;7.80;;;3.57;;
13404;SDS011;6773;51.192;7.024;2023-03-20T15:41:57;5.13;;;3.13;;
13404;SDS011;6773;51.192;7.024;2023-03-20T15:44:36;9.67;;;3.77;;
13404;SDS011;6773;51.192;7.024;2023-03-20T15:47:06;5.40;;;3.77;;
13404;SDS011;6773;51.192;7.024;2023-03-20T15:49:38;7.33;;;3.00;;
13404;SDS011;6773;51.192;7.024;2023-03-20T15:54:49;5.80;;;3.07;;
13404;SDS011;6773;51.192;7.024;2023-03-20T15:57:18;6.33;;;3.53;;
13404;SDS011;6773;51.192;7.024;2023-03-20T15:59:49;5.37;;;3.03;;
13404;SDS011;6773;51.192;7.024;2023-03-20T16:02:15;6.60;;;3.20;;
13404;SDS011;6773;51.192;7.024;2023-03-20T16:04:44;7.43;;;3.87;;
13404;SDS011;6773;51.192;7.024;2023-03-20T16:07:33;5.40;;;2.90;;
13404;SDS011;6773;51.192;7.024;2023-03-20T16:09:59;6.90;;;3.27;;
13404;SDS011;6773;51.192;7.024;2023-03-20T16:12:25;5.80;;;3.50;;
13404;SDS011;6773;51.192;7.024;2023-03-20T16:14:51;7.60;;;3.20;;
13404;SDS011;6773;51.192;7.024;2023-03-20T16:17:18;5.10;;;3.00;;
13404;SDS011;6773;51.192;7.024;2023-03-20T16:19:46;8.20;;;2.93;;
13404;SDS011;6773;51.192;7.024;2023-03-20T16:22:15;7.20;;;3.30;;
13404;SDS011;6773;51.192;7.024;2023-03-20T16:24:54;5.00;;;3.40;;
13404;SDS011;6773;51.192;7.024;2023-03-20T16:27:33;4.83;;;2.90;;
13404;SDS011;6773;51.192;7.024;2023-03-20T16:30:04;6.47;;;3.13;;
13404;SDS011;6773;51.192;7.024;2023-03-20T16:32:34;8.00;;;3.30;;
13404;SDS011;6773;51.192;7.024;2023-03-20T16:35:10;5.67;;;2.90;;
13404;SDS011;6773;51.192;7.024;2023-03-20T16:37:47;7.20;;;3.30;;
13404;SDS011;6773;51.192;7.024;2023-03-20T16:40:17;8.37;;;3.40;;
13404;SDS011;6773;51.192;7.024;2023-03-20T16:42:44;7.40;;;3.27;;
13404;SDS011;6773;51.192;7.024;2023-03-20T16:45:19;6.00;;;3.03;;
13404;SDS011;6773;51.192;7.024;2023-03-20T16:48:01;7.03;;;3.00;;
13404;SDS011;6773;51.192;7.024;2023-03-20T16:50:38;7.83;;;3.90;;
13404;SDS011;6773;51.192;7.024;2023-03-20T16:53:09;6.10;;;3.37;;
13404;SDS011;6773;51.192;7.024;2023-03-20T16:55:41;6.13;;;3.50;;
13404;SDS011;6773;51.192;7.024;2023-03-20T16:58:10;9.23;;;3.13;;
13404;SDS011;6773;51.192;7.024;2023-03-20T17:00:42;8.27;;;3.03;;
13404;SDS011;6773;51.192;7.024;2023-03-20T17:03:12;7.50;;;2.93;;
13404;SDS011;6773;51.192;7.024;2023-03-20T17:05:46;5.90;;;3.00;;
13404;SDS011;6773;51.192;7.024;2023-03-20T17:08:41;11.97;;;3.20;;
13404;SDS011;6773;51.192;7.024;2023-03-20T17:11:14;7.87;;;3.20;;
13404;SDS011;6773;51.192;7.024;2023-03-20T17:13:45;5.17;;;3.27;;
13404;SDS011;6773;51.192;7.024;2023-03-20T17:16:13;9.53;;;3.07;;
13404;SDS011;6773;51.192;7.024;2023-03-20T17:18:45;4.47;;;3.07;;
13404;SDS011;6773;51.192;7.024;2023-03-20T17:21:22;5.83;;;2.80;;
13404;SDS011;6773;51.192;7.024;2023-03-20T17:23:48;9.23;;;2.87;;